Time;durP1;ratioP1;P1;durP2;ratioP2;P2;SDS_P1;SDS_P2;PMS_P1;PMS_P2;Temp;Humidity;BMP_temperature;BMP_pressure;BME280_temperature;BME280_humidity;BME280_pressure;Samples;Min_cycle;Max_cycle;Signal;HPM_P1;HPM_P2
2021/12/25 04:02:30;;;;;;;1.40;0.37;;;1.10;99.90;;;;;;6190677;23;20048;-89
2021/12/25 04:23:44;;;;;;;2.40;0.70;;;1.10;99.90;;;;;;5986278;23;20024;-91
2021/12/25 10:44:25;;;;;;;0.60;0.17;;;1.00;99.90;;;;;;6203158;23;20031;-89
2021/12/25 10:47:56;;;;;;;0.93;0.30;;;0.40;99.90;;;;;;6198069;23;20108;-87
2021/12/25 10:50:48;;;;;;;0.60;0.30;;;0.50;88.90;;;;;;6192353;23;20023;-88
2021/12/25 10:53:41;;;;;;;3.50;0.10;;;0.50;99.90;;;;;;6165806;23;20028;-87
2021/12/25 10:56:40;;;;;;;1.35;0.13;;;0.90;92.50;;;;;;6216340;23;20036;-91
2021/12/25 11:03:40;;;;;;;0.70;0.20;;;1.10;99.90;;;;;;6216015;23;20088;-88
2021/12/25 11:07:03;;;;;;;0.60;0.17;;;0.70;99.90;;;;;;6189237;23;20479;-87
2021/12/25 11:10:40;;;;;;;2.60;0.30;;;0.20;83.90;;;;;;6170178;23;20347;-89
2021/12/25 11:13:31;;;;;;;0.67;0.30;;;0.80;99.90;;;;;;6193762;23;20075;-88
2021/12/25 11:16:15;;;;;;;1.30;0.13;;;0.50;83.30;;;;;;6189286;23;20054;-88
2021/12/25 11:19:44;;;;;;;1.90;0.10;;;1.00;99.90;;;;;;6164916;23;20352;-88
2021/12/25 11:22:25;;;;;;;5.37;1.27;;;0.50;99.90;;;;;;6217225;23;20020;-89
2021/12/25 11:25:10;;;;;;;0.67;0.20;;;0.20;91.50;;;;;;6191966;23;20020;-88
2021/12/25 11:34:58;;;;;;;0.70;0.20;;;0.60;79.30;;;;;;6205940;23;20078;-88
2021/12/25 11:37:37;;;;;;;0.40;0.10;;;0.80;98.30;;;;;;6166437;23;20035;-90
2021/12/25 11:41:27;;;;;;;2.97;0.20;;;0.60;96.30;;;;;;6217895;23;20087;-89
2021/12/25 11:49:18;;;;;;;2.10;0.20;;;0.30;99.90;;;;;;6010523;23;20064;-89
2021/12/25 12:08:22;;;;;;;0.60;0.20;;;0.70;99.90;;;;;;6099539;23;20009;-88
2021/12/25 13:56:30;;;;;;;0.60;0.23;;;0.80;83.00;;;;;;6058413;23;20060;-91
2021/12/25 16:38:56;;;;;;;2.43;0.53;;;0.10;99.90;;;;;;6156323;23;20052;-89
2021/12/25 17:03:15;;;;;;;;;;;;;;;;;;;;;
2021/12/25 17:19:51;;;;;;;;;;;-0.10;99.90;;;;;;5999342;23;20357;-88
2021/12/25 17:31:13;;;;;;;3.17;1.10;;;0.30;99.90;;;;;;5972320;23;20024;-88
2021/12/25 17:42:54;;;;;;;2.60;0.90;;;-0.20;99.90;;;;;;6215966;23;20025;-89
2021/12/25 17:49:46;;;;;;;1.83;0.50;;;-0.40;99.90;;;;;;6162845;23;20086;-88
2021/12/25 17:53:26;;;;;;;2.23;0.50;;;0.10;99.90;;;;;;6156303;23;20032;-87
2021/12/25 17:56:31;;;;;;;1.30;0.80;;;-0.10;99.90;;;;;;6168107;23;20348;-87
2021/12/25 18:03:29;;;;;;;1.70;0.87;;;-0.40;99.90;;;;;;6073731;23;20026;-88
2021/12/25 18:07:00;;;;;;;3.27;1.10;;;0.00;99.90;;;;;;6072866;23;20515;-87
2021/12/25 18:18:15;;;;;;;2.20;0.73;;;0.60;99.90;;;;;;5984610;23;20103;-87
2021/12/25 18:21:17;;;;;;;2.97;0.80;;;0.10;96.80;;;;;;6024945;23;20030;-88
2021/12/25 18:24:25;;;;;;;1.63;0.37;;;-0.20;99.50;;;;;;6081042;23;20026;-87
2021/12/25 18:27:26;;;;;;;3.97;0.50;;;-0.20;99.90;;;;;;6093993;23;20497;-89
2021/12/25 18:30:33;;;;;;;1.33;0.50;;;-0.10;99.90;;;;;;6070761;23;20520;-89
2021/12/25 18:33:38;;;;;;;;;;;;;;;;;;;;;
2021/12/25 18:36:51;;;;;;;1.77;0.57;;;-0.60;99.90;;;;;;6142324;23;20020;-89
2021/12/25 18:40:07;;;;;;;1.17;0.77;;;0.10;99.90;;;;;;6189092;23;20371;-88
2021/12/25 18:42:46;;;;;;;4.10;0.90;;;-0.50;95.50;;;;;;6163623;23;20396;-89
2021/12/25 18:45:43;;;;;;;5.83;0.77;;;-0.60;99.90;;;;;;6189573;23;20024;-88
2021/12/25 18:48:51;;;;;;;2.37;0.63;;;-0.30;99.90;;;;;;6154905;23;20365;-89
2021/12/25 18:52:00;;;;;;;1.65;0.50;;;-0.30;92.50;;;;;;6189192;23;20047;-87
2021/12/25 18:54:47;;;;;;;4.67;0.73;;;-0.20;99.90;;;;;;6166967;23;20031;-89
2021/12/25 18:57:38;;;;;;;1.70;0.77;;;0.00;99.90;;;;;;6173484;23;20021;-87
2021/12/25 19:00:34;;;;;;;4.33;1.53;;;-0.10;97.60;;;;;;6211895;23;20100;-88
2021/12/25 19:03:30;;;;;;;3.97;0.60;;;0.20;99.90;;;;;;6212980;23;20017;-88
2021/12/25 19:06:45;;;;;;;2.83;0.50;;;0.20;99.90;;;;;;6196824;23;20024;-87
2021/12/25 19:10:14;;;;;;;1.37;0.50;;;0.30;99.90;;;;;;6195584;23;20025;-89
2021/12/25 19:13:03;;;;;;;1.60;0.57;;;-0.10;99.90;;;;;;6213956;23;20047;-89
2021/12/25 19:16:23;;;;;;;2.73;0.50;;;0.00;99.90;;;;;;6214420;23;20016;-90
2021/12/25 19:19:57;;;;;;;2.83;0.50;;;-0.30;99.50;;;;;;6214528;23;20475;-88
2021/12/25 19:23:09;;;;;;;2.53;0.30;;;-0.50;99.90;;;;;;6210316;23;20571;-87
2021/12/25 19:30:01;;;;;;;;;;;;;;;;;;;;;
2021/12/25 19:33:13;;;;;;;1.47;0.50;;;-0.60;99.90;;;;;;6212235;23;20028;-88
2021/12/25 19:36:29;;;;;;;2.03;0.43;;;0.10;99.90;;;;;;6193341;23;20059;-88
2021/12/25 19:39:22;;;;;;;2.53;0.90;;;0.10;99.90;;;;;;6189500;23;20408;-88
2021/12/25 19:42:53;;;;;;;2.37;0.63;;;0.00;99.90;;;;;;6217352;23;20092;-87
2021/12/25 19:46:32;;;;;;;0.90;0.60;;;-0.20;99.90;;;;;;6069049;23;20014;-87
2021/12/25 19:50:35;;;;;;;3.17;0.50;;;-0.80;96.10;;;;;;6216977;23;20047;-88
2021/12/25 19:54:00;;;;;;;3.10;0.53;;;-0.80;96.50;;;;;;6216901;23;20098;-87
2021/12/25 20:01:22;;;;;;;0.90;0.50;;;0.00;99.90;;;;;;6205895;23;20017;-87
2021/12/25 20:05:05;;;;;;;1.77;0.40;;;0.00;99.90;;;;;;6035674;23;20092;-87
2021/12/25 20:08:24;;;;;;;1.13;0.60;;;-0.10;99.90;;;;;;6053911;23;20025;-87
2021/12/25 20:11:59;;;;;;;2.43;0.70;;;-0.30;99.90;;;;;;6083809;23;20014;-88
2021/12/25 20:20:36;;;;;;;1.30;0.47;;;-0.20;99.90;;;;;;6101742;23;20130;-87
2021/12/25 20:23:44;;;;;;;1.10;0.47;;;-0.30;99.90;;;;;;6117447;23;20017;-89
2021/12/25 20:27:17;;;;;;;1.30;0.40;;;-0.30;99.90;;;;;;6100107;23;20018;-89
2021/12/25 20:30:34;;;;;;;1.77;0.60;;;-0.50;99.90;;;;;;6104843;23;20018;-86
2021/12/25 20:33:39;;;;;;;1.57;0.57;;;-0.50;99.90;;;;;;6067046;23;20018;-87
2021/12/25 20:36:54;;;;;;;2.93;0.63;;;-0.80;95.90;;;;;;6101909;23;20464;-86
2021/12/25 20:40:33;;;;;;;;;;;;;;;;;;;;;
2021/12/25 20:43:50;;;;;;;1.07;0.30;;;-0.50;99.90;;;;;;6170425;23;20013;-89
2021/12/25 20:47:36;;;;;;;1.80;0.60;;;-0.50;97.10;;;;;;6199928;23;20025;-90
2021/12/25 20:50:53;;;;;;;2.07;0.40;;;-0.60;71.80;;;;;;6198889;23;20027;-89
2021/12/25 20:54:33;;;;;;;2.77;0.57;;;-0.30;99.90;;;;;;6190764;23;20033;-87
2021/12/25 20:57:30;;;;;;;1.30;0.40;;;-0.30;99.90;;;;;;6193937;23;20015;-88
2021/12/25 21:00:28;;;;;;;0.97;0.30;;;-0.50;95.30;;;;;;6196046;23;20064;-89
2021/12/25 21:03:25;;;;;;;1.37;0.57;;;-0.50;99.90;;;;;;6190037;23;20087;-89
2021/12/25 21:06:47;;;;;;;4.67;0.60;;;-0.50;96.10;;;;;;6171356;23;20044;-88
2021/12/25 21:09:36;;;;;;;1.37;0.30;;;-0.80;89.30;;;;;;6167838;23;20016;-87
2021/12/25 21:12:20;;;;;;;0.83;0.30;;;-0.70;99.90;;;;;;6167539;23;20491;-85
2021/12/25 21:15:05;;;;;;;2.00;0.50;;;-0.50;99.90;;;;;;6167964;23;20017;-88
2021/12/25 21:17:53;;;;;;;1.70;1.00;;;-1.00;78.80;;;;;;6216562;23;20036;-88
2021/12/25 21:20:33;;;;;;;1.83;0.23;;;-0.90;87.30;;;;;;6166962;23;20013;-87
2021/12/25 21:23:07;;;;;;;4.03;0.33;;;-0.70;99.90;;;;;;6189771;23;20023;-87
2021/12/25 21:25:42;;;;;;;1.70;0.63;;;-0.40;99.90;;;;;;6167358;23;20107;-87
2021/12/25 21:28:15;;;;;;;2.30;0.50;;;-0.40;99.90;;;;;;6188998;23;20394;-86
2021/12/25 21:30:50;;;;;;;2.67;0.50;;;-0.20;99.90;;;;;;6166230;23;20028;-88
2021/12/25 21:33:28;;;;;;;4.87;0.70;;;-0.80;71.60;;;;;;6191916;23;20013;-89
2021/12/25 21:36:06;;;;;;;1.07;0.50;;;-0.70;89.80;;;;;;6191863;23;20013;-87
2021/12/25 21:38:51;;;;;;;2.77;0.40;;;-0.40;99.90;;;;;;6192200;23;20452;-86
2021/12/25 21:41:33;;;;;;;2.10;0.67;;;-0.40;99.90;;;;;;6189737;23;20341;-87
2021/12/25 21:44:07;;;;;;;1.50;0.57;;;-0.40;99.90;;;;;;6165494;23;20389;-87
2021/12/25 21:46:51;;;;;;;0.93;0.40;;;-0.60;73.40;;;;;;6192238;23;20019;-86
2021/12/25 21:49:29;;;;;;;1.30;0.50;;;-0.30;99.90;;;;;;6189645;23;20016;-86
2021/12/25 21:52:09;;;;;;;2.57;0.73;;;-0.30;92.90;;;;;;6167538;23;20099;-88
2021/12/25 21:54:42;;;;;;;1.27;0.43;;;-0.40;99.90;;;;;;6191274;23;20016;-88
2021/12/25 21:57:16;;;;;;;4.30;0.57;;;-0.30;99.90;;;;;;6191324;23;20433;-87
2021/12/25 21:59:48;;;;;;;3.53;0.53;;;-0.80;85.50;;;;;;6215535;23;20425;-87
2021/12/25 22:02:33;;;;;;;3.07;0.50;;;-0.70;80.80;;;;;;6192944;23;20012;-87
2021/12/25 22:05:09;;;;;;;1.90;0.50;;;-0.60;97.50;;;;;;6215800;23;20020;-86
2021/12/25 22:07:44;;;;;;;0.80;0.50;;;-0.60;98.50;;;;;;6191366;23;20044;-88
2021/12/25 22:10:18;;;;;;;1.30;0.70;;;-0.40;99.90;;;;;;6214733;23;20099;-88
2021/12/25 22:12:53;;;;;;;3.73;0.57;;;-0.70;71.80;;;;;;6191726;23;20439;-86
2021/12/25 22:15:31;;;;;;;3.23;0.53;;;-0.60;99.90;;;;;;6191514;23;20017;-88
2021/12/25 22:18:03;;;;;;;2.58;0.47;;;-1.00;64.20;;;;;;6216906;23;20019;-90
2021/12/25 22:20:40;;;;;;;2.07;0.57;;;-1.00;83.30;;;;;;6214737;23;20013;-88
2021/12/25 22:23:15;;;;;;;6.43;0.47;;;-0.70;99.90;;;;;;6214538;23;20408;-88
2021/12/25 22:25:45;;;;;;;1.10;0.27;;;-0.80;71.20;;;;;;6214557;23;20028;-87
2021/12/25 22:28:18;;;;;;;2.13;0.70;;;-0.80;78.10;;;;;;6216715;23;20380;-90
2021/12/25 22:30:52;;;;;;;1.57;0.30;;;-0.70;81.50;;;;;;6190756;23;20535;-89
2021/12/25 22:33:29;;;;;;;1.33;0.57;;;-0.70;99.90;;;;;;6215729;23;20013;-89
2021/12/25 22:36:10;;;;;;;4.47;0.87;;;-0.60;89.80;;;;;;6193242;23;20359;-88
2021/12/25 22:38:49;;;;;;;0.87;0.43;;;-0.80;91.80;;;;;;6216588;23;20016;-90
2021/12/25 22:41:19;;;;;;;1.57;0.53;;;-0.60;99.60;;;;;;6217072;23;20027;-85
2021/12/25 22:43:58;;;;;;;2.40;0.47;;;-1.10;78.10;;;;;;6215722;23;20009;-88
2021/12/25 22:46:32;;;;;;;3.00;0.47;;;-0.80;96.20;;;;;;6192192;23;20021;-86
2021/12/25 22:49:15;;;;;;;2.63;0.57;;;-1.00;60.70;;;;;;6192541;23;20453;-89
2021/12/25 22:51:45;;;;;;;0.70;0.13;;;-0.90;65.60;;;;;;6190646;23;20048;-88
2021/12/25 22:54:18;;;;;;;3.47;0.40;;;-0.80;99.90;;;;;;6216226;23;20386;-88
2021/12/25 22:56:50;;;;;;;1.67;0.20;;;-0.70;97.40;;;;;;6216207;23;20103;-90
2021/12/25 22:59:23;;;;;;;0.90;0.40;;;-0.90;94.60;;;;;;6192082;23;20036;-88
2021/12/25 23:01:56;;;;;;;3.10;0.33;;;-0.70;99.90;;;;;;6163390;23;20028;-88
2021/12/25 23:04:27;;;;;;;1.97;0.57;;;-0.60;94.60;;;;;;6216827;23;20051;-88
2021/12/25 23:07:06;;;;;;;4.37;0.70;;;-0.50;99.90;;;;;;6165960;23;20095;-87
2021/12/25 23:09:56;;;;;;;1.47;0.50;;;-0.70;99.90;;;;;;6186112;23;20373;-89
2021/12/25 23:12:33;;;;;;;1.33;0.60;;;-0.70;82.60;;;;;;6165675;23;20017;-89
2021/12/25 23:15:09;;;;;;;1.70;0.70;;;-0.60;99.90;;;;;;6215441;23;20396;-88
2021/12/25 23:17:44;;;;;;;1.10;0.37;;;-1.00;63.90;;;;;;6215948;23;20019;-89
2021/12/25 23:20:22;;;;;;;1.47;0.63;;;-0.70;99.90;;;;;;6190795;23;20018;-89
2021/12/25 23:22:55;;;;;;;3.43;0.60;;;-0.50;99.90;;;;;;6189325;23;20016;-87
2021/12/25 23:25:23;;;;;;;0.70;0.30;;;-0.90;74.40;;;;;;6189352;23;20031;-89
2021/12/25 23:27:58;;;;;;;0.98;0.40;;;-0.80;99.90;;;;;;6165171;23;20021;-89
2021/12/25 23:30:28;;;;;;;2.87;0.67;;;-0.80;72.10;;;;;;6165319;23;20020;-90
2021/12/25 23:33:07;;;;;;;1.07;0.40;;;-0.80;99.90;;;;;;6189625;23;20025;-88
2021/12/25 23:35:40;;;;;;;1.47;0.30;;;-0.60;99.90;;;;;;6188911;23;20024;-88
2021/12/25 23:38:16;;;;;;;1.07;0.37;;;-0.80;99.90;;;;;;6189205;23;20416;-87
2021/12/25 23:40:55;;;;;;;3.07;0.73;;;-0.70;88.50;;;;;;6215150;23;20330;-89
2021/12/25 23:43:36;;;;;;;1.33;0.30;;;-1.00;65.50;;;;;;6189189;23;20017;-88
2021/12/25 23:46:10;;;;;;;1.80;0.80;;;-1.00;99.90;;;;;;6188483;23;20024;-88
2021/12/25 23:48:45;;;;;;;2.83;0.80;;;-0.80;99.90;;;;;;6163755;23;20048;-87
2021/12/25 23:51:29;;;;;;;1.70;0.83;;;-1.10;82.30;;;;;;6188667;23;20028;-89
2021/12/25 23:54:06;;;;;;;2.23;0.50;;;-1.40;81.40;;;;;;6163959;23;20075;-88
2021/12/25 23:56:45;;;;;;;1.07;0.60;;;-1.40;99.90;;;;;;6164537;23;20052;-90
2021/12/25 23:59:23;;;;;;;1.50;0.30;;;-1.40;61.30;;;;;;6190544;23;20334;-88
